Time;durP1;ratioP1;P1;durP2;ratioP2;P2;SDS_P1;SDS_P2;PMS_P1;PMS_P2;Temp;Humidity;BMP_temperature;BMP_pressure;BME280_temperature;BME280_humidity;BME280_pressure;Samples;Min_cycle;Max_cycle;Signal;HPM_P1;HPM_P2
2023/03/03 00:02:40;;;;;;;3.97;3.53;;;14.80;57.90;;;;;;5054690;28;20279;-60
2023/03/03 00:05:36;;;;;;;3.90;3.50;;;14.80;57.60;;;;;;5055230;28;20265;-60
2023/03/03 00:08:26;;;;;;;4.40;3.47;;;14.70;57.50;;;;;;5054122;28;20299;-60
2023/03/03 00:11:17;;;;;;;3.50;3.20;;;14.70;69.30;;;;;;5054293;28;20201;-61
2023/03/03 00:14:18;;;;;;;4.35;3.92;;;14.70;57.40;;;;;;5054547;28;20681;-60
2023/03/03 00:17:23;;;;;;;3.97;3.60;;;14.70;57.50;;;;;;5062791;28;20215;-62
2023/03/03 00:20:33;;;;;;;4.20;3.33;;;14.70;57.50;;;;;;5055918;28;20247;-60
2023/03/03 00:23:38;;;;;;;4.95;3.70;;;14.60;57.60;;;;;;5054075;28;20214;-59
2023/03/03 00:26:35;;;;;;;6.03;4.25;;;14.60;57.40;;;;;;5053931;28;20201;-60
2023/03/03 00:29:29;;;;;;;6.00;3.97;;;14.60;57.60;;;;;;5054602;28;20253;-60
2023/03/03 00:32:30;;;;;;;5.85;3.80;;;14.60;57.50;;;;;;5054260;28;20228;-61
2023/03/03 00:35:24;;;;;;;4.80;4.30;;;14.60;57.40;;;;;;5053756;28;20250;-61
2023/03/03 00:38:16;;;;;;;3.90;3.50;;;14.50;57.50;;;;;;5053568;28;20211;-61
2023/03/03 00:41:16;;;;;;;3.95;3.50;;;14.50;57.50;;;;;;5053365;28;20197;-61
2023/03/03 00:44:31;;;;;;;4.32;3.63;;;14.50;57.70;;;;;;5054156;28;20250;-61
2023/03/03 00:47:31;;;;;;;4.53;3.95;;;14.40;57.50;;;;;;5054677;28;20244;-60
2023/03/03 00:50:31;;;;;;;5.32;3.65;;;14.40;57.80;;;;;;5053936;28;20604;-61
2023/03/03 00:53:20;;;;;;;4.35;3.95;;;14.50;57.70;;;;;;5053415;28;20246;-60
2023/03/03 00:56:08;;;;;;;4.05;3.65;;;14.50;57.70;;;;;;5053985;28;20280;-61
2023/03/03 00:58:56;;;;;;;4.43;3.63;;;14.50;57.80;;;;;;5053373;28;20272;-61
2023/03/03 01:01:46;;;;;;;3.72;3.40;;;14.50;57.90;;;;;;5052971;28;20631;-61
2023/03/03 01:04:34;;;;;;;4.22;3.58;;;14.40;57.80;;;;;;5053416;28;20576;-61
2023/03/03 01:07:23;;;;;;;5.78;4.18;;;14.30;57.70;;;;;;5053456;28;20284;-60
2023/03/03 01:10:11;;;;;;;5.00;3.53;;;14.30;57.70;;;;;;5052740;28;20214;-60
2023/03/03 01:12:59;;;;;;;5.93;4.55;;;14.50;57.90;;;;;;5053665;28;20225;-61
2023/03/03 01:15:48;;;;;;;4.72;3.95;;;14.60;57.90;;;;;;5053070;28;20205;-61
2023/03/03 01:18:39;;;;;;;5.25;3.42;;;14.30;57.50;;;;;;5053101;28;20209;-61
2023/03/03 01:21:27;;;;;;;4.07;3.67;;;14.40;75.30;;;;;;5053336;28;20210;-61
2023/03/03 01:24:15;;;;;;;4.88;3.88;;;14.30;57.80;;;;;;5053850;28;20244;-61
2023/03/03 01:27:03;;;;;;;5.05;4.25;;;14.50;57.80;;;;;;5052446;28;20247;-60
2023/03/03 01:29:51;;;;;;;4.78;4.07;;;14.50;57.70;;;;;;5053994;28;20636;-61
2023/03/03 01:32:39;;;;;;;5.88;4.10;;;14.50;57.60;;;;;;5054197;28;20231;-60
2023/03/03 01:35:29;;;;;;;4.20;3.55;;;14.50;57.60;;;;;;5052942;28;20284;-61
2023/03/03 01:38:17;;;;;;;4.75;3.60;;;14.90;58.00;;;;;;5051904;28;20719;-60
2023/03/03 01:41:06;;;;;;;4.22;3.53;;;14.50;57.40;;;;;;5053237;28;20239;-60
2023/03/03 01:43:54;;;;;;;5.95;4.03;;;14.50;57.40;;;;;;5052796;28;20286;-61
2023/03/03 01:46:51;;;;;;;4.18;3.78;;;14.50;57.40;;;;;;5052795;28;20251;-61
2023/03/03 01:49:43;;;;;;;5.63;4.38;;;14.50;57.50;;;;;;5053319;28;20312;-61
2023/03/03 01:52:36;;;;;;;4.07;3.67;;;14.50;57.40;;;;;;5052807;28;20769;-61
2023/03/03 01:55:28;;;;;;;4.63;3.60;;;14.50;57.20;;;;;;5052937;28;20205;-61
2023/03/03 01:58:20;;;;;;;4.67;3.50;;;14.50;57.40;;;;;;5052012;28;20201;-61
2023/03/03 02:01:14;;;;;;;3.47;3.15;;;14.50;57.40;;;;;;5052662;28;20232;-61
2023/03/03 02:04:02;;;;;;;4.22;3.38;;;14.50;57.20;;;;;;5052559;28;20334;-61
2023/03/03 02:06:56;;;;;;;4.15;3.28;;;14.50;57.30;;;;;;5052664;28;20260;-60
2023/03/03 02:09:52;;;;;;;4.70;3.85;;;14.40;57.20;;;;;;5052915;28;20286;-61
2023/03/03 02:12:43;;;;;;;4.32;3.45;;;14.40;57.20;;;;;;5051856;28;20780;-63
2023/03/03 02:15:34;;;;;;;5.15;3.70;;;14.40;57.20;;;;;;5052123;28;20733;-60
2023/03/03 02:18:22;;;;;;;3.60;2.85;;;14.50;57.40;;;;;;5052539;28;20206;-61
2023/03/03 02:21:14;;;;;;;4.97;3.90;;;14.40;57.30;;;;;;5052431;28;20287;-61
2023/03/03 02:24:09;;;;;;;5.10;4.05;;;14.40;57.40;;;;;;5052552;28;20237;-61
2023/03/03 02:26:59;;;;;;;4.32;3.60;;;14.40;57.20;;;;;;5054775;28;20275;-61
2023/03/03 02:29:47;;;;;;;3.25;2.95;;;14.50;57.40;;;;;;5064305;28;20631;-60
2023/03/03 02:32:35;;;;;;;4.13;3.45;;;14.50;57.50;;;;;;5052227;28;20764;-61
2023/03/03 02:35:29;;;;;;;6.32;4.55;;;14.40;57.70;;;;;;5052222;28;20291;-60
2023/03/03 02:38:25;;;;;;;4.25;3.85;;;14.40;57.50;;;;;;5052398;28;20585;-61
2023/03/03 02:41:21;;;;;;;3.67;3.35;;;14.30;57.50;;;;;;5049422;28;20627;-60
2023/03/03 02:44:11;;;;;;;4.00;3.47;;;14.40;57.80;;;;;;5031817;28;20718;-60
2023/03/03 02:47:00;;;;;;;4.70;4.07;;;14.40;57.70;;;;;;5033773;28;20210;-60
2023/03/03 02:49:48;;;;;;;6.35;4.55;;;14.40;57.60;;;;;;5035229;28;20228;-60
2023/03/03 02:52:36;;;;;;;3.90;3.38;;;14.30;57.40;;;;;;5035326;28;20218;-60
2023/03/03 02:55:24;;;;;;;4.65;3.30;;;14.40;57.70;;;;;;5034926;28;20687;-61
2023/03/03 02:58:12;;;;;;;3.92;3.20;;;14.50;57.80;;;;;;5034814;28;20679;-61
2023/03/03 03:01:02;;;;;;;5.00;3.92;;;14.40;57.60;;;;;;5034671;28;20272;-61
2023/03/03 03:03:50;;;;;;;6.47;4.00;;;14.40;57.50;;;;;;5034993;28;20209;-60
2023/03/03 03:06:39;;;;;;;4.18;3.70;;;14.40;57.50;;;;;;5034163;28;20210;-63
2023/03/03 03:09:27;;;;;;;5.07;3.90;;;14.20;57.50;;;;;;5036350;28;20733;-61
2023/03/03 03:12:18;;;;;;;4.43;3.75;;;14.40;57.60;;;;;;5034292;28;20348;-60
2023/03/03 03:15:08;;;;;;;5.25;4.35;;;14.40;57.60;;;;;;5034289;28;20256;-61
2023/03/03 03:17:58;;;;;;;4.82;3.75;;;14.40;57.50;;;;;;5036247;28;20691;-61
2023/03/03 03:20:46;;;;;;;5.63;4.45;;;14.40;57.60;;;;;;5034430;28;20700;-60
2023/03/03 03:23:35;;;;;;;6.43;4.32;;;14.30;57.50;;;;;;5034645;28;20214;-61
2023/03/03 03:26:24;;;;;;;5.88;4.20;;;14.50;57.70;;;;;;5039036;28;20331;-61
2023/03/03 03:29:12;;;;;;;5.43;4.10;;;14.30;57.60;;;;;;5050258;28;20287;-60
2023/03/03 03:32:00;;;;;;;4.00;3.35;;;14.60;57.80;;;;;;5039262;28;20756;-61
2023/03/03 03:34:49;;;;;;;3.50;3.20;;;14.30;57.60;;;;;;5033939;28;20235;-62
2023/03/03 03:37:37;;;;;;;3.40;3.08;;;14.40;57.70;;;;;;5036045;28;20198;-61
2023/03/03 03:40:26;;;;;;;4.85;3.75;;;14.30;57.70;;;;;;5033789;28;20332;-61
2023/03/03 03:43:14;;;;;;;5.35;4.25;;;14.30;57.80;;;;;;5035366;28;20258;-61
2023/03/03 03:46:02;;;;;;;4.32;3.78;;;14.30;57.80;;;;;;5033857;28;20286;-61
2023/03/03 03:48:50;;;;;;;3.97;3.42;;;14.40;57.90;;;;;;5034126;28;20202;-60
2023/03/03 03:51:40;;;;;;;5.22;4.28;;;14.40;57.90;;;;;;5033713;28;20337;-61
2023/03/03 03:54:28;;;;;;;5.43;3.90;;;14.40;58.00;;;;;;5035263;28;20202;-61
2023/03/03 03:57:17;;;;;;;5.65;4.07;;;14.30;58.00;;;;;;5034140;28;20291;-61
2023/03/03 04:00:05;;;;;;;5.03;4.53;;;14.40;57.90;;;;;;5033837;28;20198;-61
2023/03/03 04:02:53;;;;;;;6.18;5.05;;;14.30;57.90;;;;;;5034704;28;20742;-61
2023/03/03 04:05:42;;;;;;;5.32;4.43;;;14.30;58.00;;;;;;5033508;28;20198;-61
2023/03/03 04:08:31;;;;;;;5.60;4.50;;;14.20;58.00;;;;;;5034522;28;20194;-61
2023/03/03 04:11:19;;;;;;;5.93;4.85;;;14.30;70.20;;;;;;5033394;28;20217;-60
2023/03/03 04:14:08;;;;;;;5.60;4.20;;;14.20;58.00;;;;;;5034104;28;20221;-60
2023/03/03 04:16:56;;;;;;;6.90;4.43;;;14.20;58.10;;;;;;5034107;28;20742;-61
2023/03/03 04:19:45;;;;;;;4.82;4.28;;;14.20;58.10;;;;;;5033988;28;20313;-61
2023/03/03 04:22:34;;;;;;;6.47;4.72;;;14.10;58.10;;;;;;5034781;28;20673;-61
2023/03/03 04:25:24;;;;;;;7.30;4.85;;;14.20;58.00;;;;;;5033356;28;20667;-61
2023/03/03 04:28:12;;;;;;;5.38;4.47;;;14.10;58.00;;;;;;5035607;28;20205;-61
2023/03/03 04:31:00;;;;;;;4.97;3.70;;;14.10;58.10;;;;;;5033813;28;20210;-61
2023/03/03 04:33:48;;;;;;;6.82;4.60;;;14.10;57.60;;;;;;5033678;28;20674;-60
2023/03/03 04:36:36;;;;;;;6.60;4.65;;;14.20;58.20;;;;;;5032402;28;20281;-61
2023/03/03 04:39:24;;;;;;;5.27;4.20;;;14.20;58.10;;;;;;5037916;28;20300;-61
2023/03/03 04:42:14;;;;;;;6.17;4.33;;;14.20;58.20;;;;;;5043751;28;20250;-61
2023/03/03 04:45:02;;;;;;;5.90;4.70;;;14.10;58.00;;;;;;5033358;28;20282;-60
2023/03/03 04:47:50;;;;;;;6.32;4.35;;;14.20;58.10;;;;;;5035547;28;20674;-60
2023/03/03 04:50:38;;;;;;;4.50;3.67;;;14.30;58.10;;;;;;5032754;28;20218;-61
2023/03/03 04:53:26;;;;;;;7.00;4.80;;;14.20;58.00;;;;;;5034003;28;20225;-60
2023/03/03 04:56:15;;;;;;;5.38;4.43;;;14.10;57.80;;;;;;5033063;28;20206;-60
2023/03/03 04:59:04;;;;;;;7.75;5.25;;;14.20;57.80;;;;;;5033260;28;20551;-60
2023/03/03 05:01:52;;;;;;;5.95;4.28;;;14.10;57.70;;;;;;5033246;28;20220;-60
2023/03/03 05:04:40;;;;;;;5.15;4.15;;;14.40;57.90;;;;;;5033966;28;20206;-60
2023/03/03 05:07:28;;;;;;;5.93;4.70;;;14.30;57.80;;;;;;5032947;28;20595;-61
2023/03/03 05:10:17;;;;;;;7.00;4.28;;;14.20;57.70;;;;;;5032662;28;20198;-61
2023/03/03 05:13:05;;;;;;;6.10;4.03;;;14.30;57.80;;;;;;5034283;28;20222;-61
2023/03/03 05:15:56;;;;;;;5.53;4.38;;;14.30;57.90;;;;;;5032746;28;20281;-61
2023/03/03 05:18:44;;;;;;;5.43;4.30;;;14.20;57.90;;;;;;5033770;28;20198;-61
2023/03/03 05:21:32;;;;;;;5.68;4.35;;;14.10;75.30;;;;;;5032334;28;20365;-61
2023/03/03 05:24:21;;;;;;;4.72;4.00;;;14.30;58.00;;;;;;5032915;28;20357;-61
2023/03/03 05:27:10;;;;;;;5.90;4.97;;;14.20;57.80;;;;;;5032479;28;20281;-61
2023/03/03 05:29:58;;;;;;;4.80;4.30;;;14.20;58.00;;;;;;5032726;28;20670;-61
2023/03/03 05:32:48;;;;;;;5.38;4.03;;;14.10;57.90;;;;;;5032304;28;20304;-60
2023/03/03 05:35:36;;;;;;;5.95;4.72;;;14.20;58.20;;;;;;5032015;28;20281;-60
2023/03/03 05:38:24;;;;;;;5.13;4.10;;;14.10;58.10;;;;;;5032639;28;20205;-61
2023/03/03 05:41:13;;;;;;;6.95;5.10;;;14.20;58.40;;;;;;5031965;28;20197;-61
2023/03/03 05:44:00;;;;;;;7.18;4.68;;;14.10;57.70;;;;;;5033026;28;20224;-61
2023/03/03 05:46:49;;;;;;;10.30;6.43;;;13.90;58.20;;;;;;5032295;28;20626;-61
2023/03/03 05:49:38;;;;;;;11.07;7.70;;;14.10;58.30;;;;;;5032910;28;20206;-60
2023/03/03 05:52:26;;;;;;;7.53;5.85;;;14.10;58.20;;;;;;5033391;28;20228;-60
2023/03/03 05:55:14;;;;;;;12.13;8.35;;;14.30;58.40;;;;;;5032146;28;20281;-60
2023/03/03 05:58:02;;;;;;;18.60;11.27;;;14.30;58.30;;;;;;5032563;28;20262;-60
2023/03/03 06:00:50;;;;;;;11.27;6.68;;;14.10;58.20;;;;;;5032220;28;20201;-60
2023/03/03 06:03:38;;;;;;;10.65;6.85;;;14.10;58.20;;;;;;5032390;28;20679;-60
2023/03/03 06:06:28;;;;;;;7.05;5.65;;;14.30;58.50;;;;;;5032106;28;20280;-60
2023/03/03 06:09:17;;;;;;;8.98;5.72;;;14.00;58.20;;;;;;5032669;28;20347;-60
2023/03/03 06:12:06;;;;;;;7.95;5.32;;;14.00;58.20;;;;;;5032728;28;20221;-60
2023/03/03 06:14:54;;;;;;;7.13;5.47;;;14.20;58.40;;;;;;5033375;28;20287;-61
2023/03/03 06:17:43;;;;;;;6.00;4.47;;;14.40;58.30;;;;;;5031625;28;20199;-60
2023/03/03 06:20:31;;;;;;;8.25;5.80;;;14.20;58.20;;;;;;5033237;28;20284;-60
2023/03/03 06:23:21;;;;;;;6.50;5.35;;;14.20;58.10;;;;;;5036529;28;20633;-61
2023/03/03 06:26:09;;;;;;;7.50;5.63;;;14.10;58.00;;;;;;5035095;28;20750;-60
2023/03/03 06:28:57;;;;;;;7.30;5.35;;;14.20;58.20;;;;;;5035852;28;20281;-60
2023/03/03 06:31:45;;;;;;;7.15;5.20;;;14.20;58.10;;;;;;5036144;28;20726;-61
2023/03/03 06:34:33;;;;;;;9.10;6.07;;;14.10;58.20;;;;;;5036338;28;20281;-61
2023/03/03 06:37:21;;;;;;;8.95;5.55;;;14.00;57.90;;;;;;5047142;28;20445;-61
2023/03/03 06:40:12;;;;;;;6.15;4.75;;;14.40;58.40;;;;;;5056354;28;20304;-61
2023/03/03 06:43:01;;;;;;;6.35;4.65;;;14.20;58.20;;;;;;5056594;28;20309;-61
2023/03/03 06:45:49;;;;;;;8.52;5.32;;;14.10;58.20;;;;;;5055905;28;20674;-61
2023/03/03 06:48:37;;;;;;;5.72;4.53;;;14.00;58.00;;;;;;5056154;28;20622;-61
2023/03/03 06:51:30;;;;;;;7.88;5.47;;;14.10;75.10;;;;;;5056366;28;20279;-61
2023/03/03 06:54:20;;;;;;;8.98;6.05;;;14.10;58.10;;;;;;5062760;28;20198;-61
2023/03/03 06:57:17;;;;;;;8.27;5.70;;;14.10;58.20;;;;;;5056771;28;20198;-60
2023/03/03 07:00:15;;;;;;;7.33;5.73;;;14.10;58.30;;;;;;5057009;28;20201;-60
2023/03/03 07:03:12;;;;;;;7.45;4.50;;;14.10;58.30;;;;;;5049872;28;20221;-60
2023/03/03 07:06:00;;;;;;;7.63;5.38;;;14.10;58.40;;;;;;5056613;28;20292;-62
2023/03/03 07:08:48;;;;;;;6.82;4.97;;;14.10;58.50;;;;;;5056022;28;20250;-61
2023/03/03 07:11:39;;;;;;;7.67;4.37;;;14.00;58.50;;;;;;5053504;28;20717;-61
2023/03/03 07:14:30;;;;;;;6.03;4.40;;;14.20;60.00;;;;;;5051436;28;20209;-61
2023/03/03 07:17:20;;;;;;;5.82;4.10;;;14.50;60.00;;;;;;5056049;28;20292;-60
2023/03/03 07:20:18;;;;;;;4.40;3.22;;;14.90;59.80;;;;;;5061515;28;20194;-61
2023/03/03 07:23:18;;;;;;;5.10;3.77;;;15.20;59.30;;;;;;5074126;28;20225;-61
2023/03/03 07:26:10;;;;;;;6.40;4.05;;;15.60;59.20;;;;;;5073486;28;20280;-61
2023/03/03 07:29:00;;;;;;;5.65;3.58;;;15.70;58.60;;;;;;5065987;28;20259;-61
2023/03/03 07:31:50;;;;;;;4.65;3.30;;;16.10;58.60;;;;;;5058517;28;20328;-63
2023/03/03 07:34:43;;;;;;;5.80;4.22;;;16.30;58.30;;;;;;5057299;28;20681;-61
2023/03/03 07:37:37;;;;;;;4.82;3.63;;;16.60;58.00;;;;;;5057431;28;20283;-61
2023/03/03 07:40:34;;;;;;;5.20;3.47;;;16.90;57.70;;;;;;5055380;28;20279;-61
2023/03/03 07:43:31;;;;;;;4.90;3.95;;;17.10;57.50;;;;;;5055993;28;20681;-61
2023/03/03 07:46:34;;;;;;;4.57;3.70;;;17.30;57.10;;;;;;5055671;28;20201;-61
2023/03/03 07:49:33;;;;;;;5.20;3.67;;;17.50;56.80;;;;;;5052920;28;20217;-61
2023/03/03 07:52:27;;;;;;;4.75;3.60;;;17.70;56.60;;;;;;5048139;28;20308;-61
2023/03/03 07:55:27;;;;;;;25.98;6.45;;;17.90;56.40;;;;;;5049310;28;20284;-61
2023/03/03 07:58:22;;;;;;;5.05;3.80;;;18.00;56.20;;;;;;5038845;28;20202;-61
2023/03/03 08:01:35;;;;;;;10.20;4.28;;;18.20;56.00;;;;;;5047829;28;20202;-61
2023/03/03 08:04:29;;;;;;;5.70;3.35;;;18.30;55.80;;;;;;5051023;28;20291;-62
2023/03/03 08:07:19;;;;;;;4.43;3.33;;;18.40;55.90;;;;;;5053375;28;20199;-61
2023/03/03 08:10:34;;;;;;;12.63;3.70;;;18.60;56.10;;;;;;5053886;28;20288;-61
2023/03/03 08:13:24;;;;;;;5.90;3.17;;;18.70;55.80;;;;;;5053370;28;20694;-61
2023/03/03 08:16:27;;;;;;;4.75;3.33;;;18.80;55.60;;;;;;5053043;28;20231;-60
2023/03/03 08:19:17;;;;;;;4.07;3.45;;;18.80;55.50;;;;;;5053127;28;20204;-61
2023/03/03 08:22:16;;;;;;;5.15;3.15;;;18.80;55.40;;;;;;5052717;28;20709;-61
2023/03/03 08:25:04;;;;;;;5.55;3.30;;;18.80;55.40;;;;;;5052550;28;20239;-61
2023/03/03 08:27:53;;;;;;;3.97;2.90;;;18.90;55.40;;;;;;5052564;28;20324;-61
2023/03/03 08:30:42;;;;;;;3.95;3.38;;;19.00;55.40;;;;;;5050644;28;20396;-60
2023/03/03 08:33:30;;;;;;;3.95;3.10;;;19.00;55.30;;;;;;5051284;28;20225;-61
2023/03/03 08:36:18;;;;;;;4.55;3.25;;;19.10;55.20;;;;;;5047457;28;26173;-60
2023/03/03 08:39:08;;;;;;;7.68;4.15;;;19.20;55.20;;;;;;5047159;28;20225;-61
2023/03/03 08:41:56;;;;;;;5.10;3.67;;;19.20;55.00;;;;;;5042648;28;20304;-61
2023/03/03 08:44:44;;;;;;;4.65;3.15;;;19.30;55.00;;;;;;5052374;28;20284;-61
2023/03/03 08:47:33;;;;;;;4.28;3.05;;;19.30;55.10;;;;;;5052268;28;20244;-61
2023/03/03 08:50:21;;;;;;;3.03;2.72;;;19.40;55.10;;;;;;5052332;28;20291;-61
2023/03/03 08:53:10;;;;;;;4.45;3.00;;;19.50;55.00;;;;;;5052195;28;20631;-62
2023/03/03 08:55:59;;;;;;;3.70;3.13;;;19.50;55.00;;;;;;5052429;28;20685;-61
2023/03/03 08:58:47;;;;;;;4.75;3.22;;;19.40;54.80;;;;;;5052405;28;20678;-61
2023/03/03 09:01:49;;;;;;;4.15;3.28;;;19.50;55.50;;;;;;5052739;28;20262;-61
2023/03/03 09:04:38;;;;;;;3.92;2.92;;;19.50;54.80;;;;;;5057659;28;20202;-61
2023/03/03 09:07:26;;;;;;;3.05;2.72;;;19.60;54.80;;;;;;5062837;28;20272;-61
2023/03/03 09:10:17;;;;;;;3.17;2.78;;;19.60;54.60;;;;;;5053577;28;20205;-61
2023/03/03 09:13:13;;;;;;;3.80;2.70;;;19.70;54.50;;;;;;5051563;28;20229;-61
2023/03/03 09:16:01;;;;;;;4.88;3.20;;;19.80;54.50;;;;;;5052430;28;20270;-61
2023/03/03 09:18:49;;;;;;;5.45;3.17;;;19.70;54.30;;;;;;5052247;28;20201;-62
2023/03/03 09:21:37;;;;;;;5.30;3.00;;;19.90;54.40;;;;;;5052025;28;20280;-61
2023/03/03 09:24:28;;;;;;;4.50;3.10;;;19.90;54.40;;;;;;5051582;28;20205;-61
2023/03/03 09:27:22;;;;;;;3.13;2.78;;;20.00;54.30;;;;;;5051605;28;20223;-61
2023/03/03 09:30:34;;;;;;;3.50;2.85;;;20.00;54.30;;;;;;5051606;28;20280;-61
2023/03/03 09:33:26;;;;;;;3.83;3.15;;;20.10;53.90;;;;;;5051781;28;20693;-62
2023/03/03 09:36:26;;;;;;;4.85;3.13;;;20.10;54.10;;;;;;5051785;28;20200;-61
2023/03/03 09:39:18;;;;;;;4.43;2.97;;;20.10;54.10;;;;;;5051929;28;20209;-61
2023/03/03 09:42:34;;;;;;;5.68;3.38;;;20.10;54.00;;;;;;5052069;28;20251;-62
2023/03/03 09:45:34;;;;;;;6.13;2.97;;;20.20;54.00;;;;;;5050997;28;20276;-61
2023/03/03 09:48:34;;;;;;;2.58;2.38;;;20.30;54.00;;;;;;5051118;28;20233;-61
2023/03/03 09:51:48;;;;;;;4.65;3.30;;;20.50;64.50;;;;;;5052104;28;20209;-61
2023/03/03 09:54:50;;;;;;;4.95;2.92;;;20.30;53.70;;;;;;5050049;28;20659;-60
2023/03/03 09:57:52;;;;;;;4.88;2.90;;;20.30;53.80;;;;;;5056101;28;20219;-61
2023/03/03 10:01:13;;;;;;;5.50;4.22;;;20.30;53.80;;;;;;5055096;28;20286;-62
2023/03/03 10:04:37;;;;;;;6.72;3.70;;;20.40;53.90;;;;;;5055403;28;20197;-62
2023/03/03 10:07:35;;;;;;;3.85;3.33;;;20.40;53.80;;;;;;5055712;28;20672;-62
2023/03/03 10:10:55;;;;;;;4.95;4.07;;;20.40;53.70;;;;;;5055015;28;20210;-61
2023/03/03 10:13:57;;;;;;;4.90;3.47;;;20.40;53.60;;;;;;5055929;28;20221;-61
2023/03/03 10:17:02;;;;;;;5.45;3.65;;;20.50;53.70;;;;;;5054611;28;20301;-61
2023/03/03 10:20:05;;;;;;;3.75;3.42;;;20.50;53.60;;;;;;5055891;28;20338;-61
2023/03/03 10:22:55;;;;;;;5.32;3.40;;;20.50;53.50;;;;;;5055862;28;20225;-61
2023/03/03 10:25:52;;;;;;;4.28;3.15;;;20.50;53.50;;;;;;5054290;28;20210;-61
2023/03/03 10:28:59;;;;;;;5.00;3.65;;;20.50;53.50;;;;;;5056503;28;20199;-61
2023/03/03 10:32:01;;;;;;;3.17;2.53;;;20.50;53.60;;;;;;5054737;28;20232;-61
2023/03/03 10:35:12;;;;;;;6.95;3.28;;;20.50;53.60;;;;;;5056084;28;20227;-62
2023/03/03 10:38:15;;;;;;;3.47;2.50;;;20.50;53.60;;;;;;5055382;28;20701;-61
2023/03/03 10:41:18;;;;;;;3.42;2.88;;;20.50;53.70;;;;;;5055412;28;20670;-62
2023/03/03 10:44:24;;;;;;;3.95;2.53;;;20.50;53.60;;;;;;5055450;28;20272;-61
2023/03/03 10:47:50;;;;;;;5.57;3.00;;;20.50;53.50;;;;;;5055662;28;20208;-61
2023/03/03 10:50:50;;;;;;;4.90;3.20;;;20.60;53.60;;;;;;5056260;28;20205;-61
2023/03/03 10:53:51;;;;;;;5.15;3.67;;;20.60;53.60;;;;;;5056258;28;20351;-61
2023/03/03 10:56:47;;;;;;;5.22;3.20;;;20.70;53.70;;;;;;5055204;28;20216;-61
2023/03/03 10:59:52;;;;;;;5.53;4.05;;;20.60;53.40;;;;;;5054927;28;20272;-61
2023/03/03 11:02:53;;;;;;;7.25;4.28;;;20.60;53.50;;;;;;5055957;28;20229;-61
2023/03/03 11:05:46;;;;;;;10.00;3.65;;;20.60;53.50;;;;;;5054859;28;20196;-61
2023/03/03 11:08:38;;;;;;;9.73;3.78;;;20.50;53.60;;;;;;5055460;28;20197;-61
2023/03/03 11:11:36;;;;;;;6.25;4.30;;;20.40;67.80;;;;;;5055142;28;20202;-61
2023/03/03 11:14:31;;;;;;;5.80;3.88;;;20.30;53.60;;;;;;5055402;28;20225;-61
2023/03/03 11:17:29;;;;;;;8.80;3.80;;;20.20;53.70;;;;;;5059820;28;20229;-62
2023/03/03 11:20:30;;;;;;;5.45;3.80;;;20.10;53.70;;;;;;5066845;28;20211;-61
2023/03/03 11:23:32;;;;;;;6.68;4.35;;;19.90;53.20;;;;;;5055971;28;20287;-61
2023/03/03 11:26:38;;;;;;;7.10;4.40;;;19.90;53.90;;;;;;5056114;28;20232;-61
2023/03/03 11:29:50;;;;;;;6.82;5.38;;;19.80;54.10;;;;;;5060277;28;20203;-63
2023/03/03 11:32:48;;;;;;;7.35;4.57;;;19.70;54.00;;;;;;5057293;28;20229;-61
2023/03/03 11:35:46;;;;;;;5.80;4.82;;;19.60;54.30;;;;;;5056370;28;20221;-61
2023/03/03 11:38:45;;;;;;;7.82;5.15;;;19.50;54.10;;;;;;5056735;28;20198;-61
2023/03/03 11:41:37;;;;;;;10.35;4.22;;;17.80;66.70;;;;;;5060512;28;20686;-61
2023/03/03 11:44:30;;;;;;;6.70;4.68;;;19.30;54.20;;;;;;5073378;28;20229;-61
2023/03/03 11:47:24;;;;;;;10.23;5.22;;;19.30;54.30;;;;;;5073737;28;20229;-61
2023/03/03 11:50:20;;;;;;;7.20;4.82;;;18.30;53.20;;;;;;5068435;28;20259;-61
2023/03/03 11:53:26;;;;;;;10.35;4.30;;;19.10;54.00;;;;;;5055315;28;20221;-61
2023/03/03 11:56:22;;;;;;;6.57;5.03;;;19.00;54.10;;;;;;5066570;28;20275;-61
2023/03/03 11:59:35;;;;;;;7.80;5.70;;;18.90;54.30;;;;;;5034834;28;20704;-61
2023/03/03 12:03:00;;;;;;;7.90;5.72;;;18.80;54.50;;;;;;5035768;28;20725;-60
2023/03/03 12:05:56;;;;;;;10.50;6.70;;;18.60;54.50;;;;;;4999467;28;20245;-61
2023/03/03 12:09:03;;;;;;;7.75;5.15;;;18.50;54.70;;;;;;5034678;28;20205;-61
2023/03/03 12:11:55;;;;;;;5.88;5.15;;;18.30;54.90;;;;;;5033887;28;20653;-61
2023/03/03 12:15:10;;;;;;;8.02;5.63;;;18.20;55.10;;;;;;5034891;28;20217;-61
2023/03/03 12:18:11;;;;;;;8.10;5.55;;;18.10;55.40;;;;;;5035034;28;20280;-61
2023/03/03 12:21:19;;;;;;;8.20;5.50;;;17.90;55.30;;;;;;5035485;28;20273;-61
2023/03/03 12:24:33;;;;;;;8.38;6.15;;;17.80;55.50;;;;;;5045943;28;20197;-61
2023/03/03 12:27:29;;;;;;;7.60;6.13;;;17.70;55.60;;;;;;5045992;28;20211;-61
2023/03/03 12:30:43;;;;;;;10.20;6.55;;;17.60;55.70;;;;;;5054838;28;20197;-61
2023/03/03 12:33:47;;;;;;;9.07;6.38;;;17.50;55.40;;;;;;5059855;23;20243;-60
2023/03/03 12:37:04;;;;;;;9.18;5.35;;;17.40;56.00;;;;;;5032504;28;20583;-61
2023/03/03 12:40:02;;;;;;;7.68;5.90;;;17.40;56.20;;;;;;5031568;28;20206;-62
2023/03/03 12:43:06;;;;;;;8.20;5.70;;;17.30;56.20;;;;;;5031701;28;20218;-62
2023/03/03 12:46:02;;;;;;;6.00;4.78;;;17.20;56.30;;;;;;5033008;28;20205;-62
2023/03/03 12:48:50;;;;;;;7.40;5.18;;;17.10;56.50;;;;;;5032786;28;20229;-62
2023/03/03 12:51:51;;;;;;;6.20;4.63;;;17.00;56.30;;;;;;5032017;28;20202;-62
2023/03/03 12:54:49;;;;;;;5.38;4.63;;;17.00;56.80;;;;;;5032213;28;20213;-62
2023/03/03 12:57:46;;;;;;;7.13;4.93;;;16.90;56.80;;;;;;5043775;28;20205;-61
2023/03/03 13:00:48;;;;;;;5.70;4.80;;;16.90;56.90;;;;;;5034256;28;20209;-61
2023/03/03 13:03:42;;;;;;;6.72;4.20;;;16.90;57.00;;;;;;5012848;28;20301;-61
2023/03/03 13:06:48;;;;;;;4.90;4.38;;;16.80;57.10;;;;;;5013397;28;20205;-62
2023/03/03 13:09:52;;;;;;;5.90;4.28;;;16.70;57.10;;;;;;5014874;28;20225;-61
2023/03/03 13:12:45;;;;;;;6.93;4.38;;;16.70;57.30;;;;;;5013447;28;20222;-62
2023/03/03 13:15:39;;;;;;;9.45;4.78;;;16.70;58.00;;;;;;5013323;28;20577;-61
2023/03/03 13:18:51;;;;;;;6.55;4.53;;;16.60;57.40;;;;;;5012376;28;20199;-60
2023/03/03 13:21:46;;;;;;;7.93;4.80;;;16.70;74.20;;;;;;5017279;28;20194;-61
2023/03/03 13:24:41;;;;;;;5.95;4.60;;;16.50;57.50;;;;;;5031794;28;20693;-61
2023/03/03 13:27:37;;;;;;;9.48;5.63;;;16.50;57.70;;;;;;5032014;28;20205;-61
2023/03/03 13:30:30;;;;;;;6.15;3.88;;;16.50;57.70;;;;;;5032779;28;20198;-61
2023/03/03 13:33:26;;;;;;;5.63;3.95;;;16.40;57.80;;;;;;5033086;28;20288;-61
2023/03/03 13:36:16;;;;;;;5.38;3.80;;;16.40;58.40;;;;;;5033020;28;20222;-61
2023/03/03 13:39:17;;;;;;;6.60;4.00;;;16.50;58.60;;;;;;5032600;28;20213;-61
2023/03/03 13:42:14;;;;;;;3.97;3.25;;;16.50;58.50;;;;;;5032717;28;20233;-61
2023/03/03 13:45:11;;;;;;;5.03;3.67;;;16.60;58.50;;;;;;5032476;28;20194;-61
2023/03/03 13:48:08;;;;;;;4.95;3.47;;;16.60;58.40;;;;;;5033078;28;20682;-61
2023/03/03 13:50:59;;;;;;;4.68;3.58;;;16.60;58.40;;;;;;5033362;28;20209;-61
2023/03/03 13:53:54;;;;;;;7.15;4.60;;;16.70;58.20;;;;;;5033003;28;20225;-61
2023/03/03 13:57:04;;;;;;;6.60;4.50;;;16.70;57.90;;;;;;5035976;28;20289;-61
2023/03/03 14:00:05;;;;;;;6.53;4.35;;;16.80;58.50;;;;;;5053291;28;20200;-61
2023/03/03 14:03:08;;;;;;;8.15;4.55;;;16.90;57.90;;;;;;5032800;28;20571;-61
2023/03/03 14:06:00;;;;;;;4.80;3.72;;;16.80;57.70;;;;;;5032389;28;20202;-61
2023/03/03 14:08:59;;;;;;;6.95;4.75;;;16.80;57.80;;;;;;5033326;28;20198;-61
2023/03/03 14:11:53;;;;;;;6.65;4.53;;;16.60;68.60;;;;;;5031537;28;20202;-61
2023/03/03 14:14:51;;;;;;;6.93;4.63;;;16.80;57.70;;;;;;5031293;28;20748;-61
2023/03/03 14:17:49;;;;;;;6.72;4.95;;;16.80;57.80;;;;;;5033172;28;20240;-61
2023/03/03 14:20:41;;;;;;;6.78;4.10;;;16.80;57.80;;;;;;5045614;28;20199;-61
2023/03/03 14:23:34;;;;;;;6.50;3.95;;;16.80;57.80;;;;;;5050607;28;20229;-61
2023/03/03 14:26:23;;;;;;;7.60;4.82;;;16.80;57.90;;;;;;5052391;28;20248;-61
2023/03/03 14:29:21;;;;;;;6.05;5.00;;;16.80;57.80;;;;;;5051236;28;20201;-60
2023/03/03 14:32:22;;;;;;;9.10;4.90;;;16.80;57.80;;;;;;5047145;28;20593;-60
2023/03/03 14:35:24;;;;;;;4.90;4.32;;;16.70;57.70;;;;;;5033615;28;20712;-60
2023/03/03 14:38:16;;;;;;;7.30;5.03;;;16.70;57.90;;;;;;5032971;28;20226;-61
2023/03/03 14:41:12;;;;;;;6.00;4.97;;;16.70;57.90;;;;;;5033238;28;20206;-61
2023/03/03 14:44:02;;;;;;;5.13;4.10;;;16.70;57.80;;;;;;5033885;28;20605;-61
2023/03/03 14:47:16;;;;;;;7.85;4.70;;;16.70;57.90;;;;;;5034440;28;20202;-61
2023/03/03 14:50:29;;;;;;;8.98;4.85;;;16.60;58.00;;;;;;5034513;28;20213;-61
2023/03/03 14:53:32;;;;;;;6.22;4.80;;;16.50;58.00;;;;;;5035250;28;20218;-61
2023/03/03 14:56:24;;;;;;;4.05;3.58;;;16.50;58.00;;;;;;5036517;28;20221;-61
2023/03/03 14:59:18;;;;;;;4.75;3.97;;;16.60;58.20;;;;;;5015388;28;20217;-61
2023/03/03 15:02:34;;;;;;;3.28;2.85;;;16.60;58.30;;;;;;5019245;28;20229;-61
2023/03/03 15:05:25;;;;;;;3.20;2.72;;;16.60;58.60;;;;;;5049437;28;20281;-61
2023/03/03 15:08:14;;;;;;;3.90;2.95;;;16.60;58.70;;;;;;5036221;28;20209;-61